Time;durP1;ratioP1;P1;durP2;ratioP2;P2;SDS_P1;SDS_P2;PMS_P1;PMS_P2;Temp;Humidity;BMP_temperature;BMP_pressure;BME280_temperature;BME280_humidity;BME280_pressure;Samples;Min_cycle;Max_cycle;Signal;HPM_P1;HPM_P2
2022/06/03 00:01:36;;;;;;;2.38;2.28;;;21.30;78.30;;;;;;4969512;28;20198;-73
2022/06/03 00:04:29;;;;;;;2.80;2.47;;;21.20;77.90;;;;;;5005266;28;20575;-74
2022/06/03 00:07:13;;;;;;;2.83;2.72;;;21.30;79.50;;;;;;5010705;28;20710;-72
2022/06/03 00:09:56;;;;;;;3.22;3.08;;;21.30;79.90;;;;;;5007007;28;20192;-72
2022/06/03 00:12:47;;;;;;;3.75;3.45;;;21.20;79.00;;;;;;5006227;28;20325;-72
2022/06/03 00:15:31;;;;;;;5.75;3.75;;;21.20;78.70;;;;;;5011553;28;20243;-72
2022/06/03 00:18:03;;;;;;;3.70;3.40;;;21.10;79.50;;;;;;5008254;28;20188;-72
2022/06/03 00:20:44;;;;;;;4.00;3.58;;;21.00;79.60;;;;;;5013305;28;20259;-72
2022/06/03 00:23:21;;;;;;;5.85;3.67;;;21.00;79.10;;;;;;5067369;28;20187;-71
2022/06/03 00:26:08;;;;;;;3.67;3.33;;;21.00;78.40;;;;;;5073355;28;20210;-72
2022/06/03 00:29:07;;;;;;;3.65;3.38;;;21.00;78.90;;;;;;5069161;28;20268;-72
2022/06/03 00:32:15;;;;;;;3.92;3.65;;;21.00;79.00;;;;;;5057769;28;20275;-73
2022/06/03 00:35:01;;;;;;;8.02;3.08;;;21.00;79.50;;;;;;5040142;28;20291;-73
2022/06/03 00:37:47;;;;;;;5.97;3.33;;;21.00;81.00;;;;;;5040158;28;20655;-73
2022/06/03 00:40:21;;;;;;;3.55;3.30;;;21.10;82.20;;;;;;5039856;28;20256;-72
2022/06/03 00:43:23;;;;;;;5.05;2.47;;;21.00;81.80;;;;;;5038649;28;20636;-72
2022/06/03 00:46:07;;;;;;;2.45;2.35;;;21.00;83.10;;;;;;5039112;28;20222;-72
2022/06/03 00:48:36;;;;;;;3.15;2.97;;;20.90;81.70;;;;;;5039733;28;20206;-72
2022/06/03 00:51:12;;;;;;;2.88;2.67;;;20.90;81.30;;;;;;5024184;28;20233;-73
2022/06/03 00:53:38;;;;;;;3.10;2.90;;;20.80;81.40;;;;;;5038162;28;20760;-72
2022/06/03 00:56:03;;;;;;;3.00;2.80;;;20.80;81.70;;;;;;5040090;28;20215;-72
2022/06/03 00:58:48;;;;;;;3.08;2.45;;;20.70;81.40;;;;;;5040210;28;20203;-72
2022/06/03 01:01:14;;;;;;;3.17;2.90;;;20.70;81.00;;;;;;5039619;28;20673;-73
2022/06/03 01:04:08;;;;;;;2.55;2.45;;;20.70;81.00;;;;;;5044871;28;20186;-72
2022/06/03 01:06:56;;;;;;;2.63;2.47;;;20.70;80.30;;;;;;5024214;28;20334;-72
2022/06/03 01:10:08;;;;;;;2.88;2.63;;;20.70;80.00;;;;;;5044031;28;20184;-72
2022/06/03 01:13:05;;;;;;;2.22;2.08;;;20.70;80.60;;;;;;5038202;28;20191;-72
2022/06/03 01:16:16;;;;;;;3.10;2.80;;;20.70;80.70;;;;;;5035632;28;20208;-72
2022/06/03 01:19:09;;;;;;;3.38;2.70;;;20.70;81.60;;;;;;5000217;28;20197;-72
2022/06/03 01:21:56;;;;;;;2.35;2.13;;;20.60;81.50;;;;;;5001505;28;20189;-72
2022/06/03 01:24:51;;;;;;;3.63;2.88;;;20.70;81.60;;;;;;4999878;28;20185;-73
2022/06/03 01:27:52;;;;;;;2.42;2.22;;;20.60;82.40;;;;;;4935293;29;20261;-72
2022/06/03 01:30:25;;;;;;;2.70;2.38;;;20.60;83.10;;;;;;4940000;29;20205;-72
2022/06/03 01:33:22;;;;;;;2.50;1.77;;;20.60;82.40;;;;;;4941149;29;20228;-73
2022/06/03 01:36:08;;;;;;;2.55;2.45;;;20.50;81.90;;;;;;4942362;29;20286;-72
2022/06/03 01:38:58;;;;;;;3.55;3.25;;;20.50;81.10;;;;;;4941320;29;20195;-72
2022/06/03 01:41:52;;;;;;;3.10;2.90;;;20.40;80.90;;;;;;4939236;29;20218;-72
2022/06/03 01:44:57;;;;;;;3.60;3.40;;;20.40;82.50;;;;;;4942891;29;20191;-72
2022/06/03 01:47:25;;;;;;;3.45;2.72;;;20.40;82.50;;;;;;4943166;28;20218;-73
2022/06/03 01:50:03;;;;;;;3.35;3.05;;;20.40;81.80;;;;;;4980289;28;20325;-73
2022/06/03 01:52:56;;;;;;;3.40;2.40;;;20.40;81.40;;;;;;4981373;28;20910;-73
2022/06/03 01:55:30;;;;;;;4.25;3.13;;;20.30;81.20;;;;;;4991456;28;20197;-73
2022/06/03 01:58:24;;;;;;;2.92;2.78;;;20.30;81.20;;;;;;5003597;28;20239;-73
2022/06/03 02:01:34;;;;;;;3.28;3.05;;;20.30;81.00;;;;;;4926189;29;20196;-72
2022/06/03 02:04:35;;;;;;;4.85;3.28;;;20.30;81.90;;;;;;4908549;29;20641;-72
2022/06/03 02:07:44;;;;;;;7.03;3.25;;;20.30;81.40;;;;;;4913656;29;20340;-72
2022/06/03 02:10:38;;;;;;;4.10;3.22;;;20.20;81.90;;;;;;4918568;29;20187;-73
2022/06/03 02:13:34;;;;;;;3.58;3.28;;;20.20;81.90;;;;;;4912043;29;20575;-73
2022/06/03 02:16:18;;;;;;;3.70;3.42;;;20.10;81.20;;;;;;4911204;29;21055;-73
2022/06/03 02:19:05;;;;;;;3.60;3.40;;;20.10;82.20;;;;;;4907599;29;20292;-73
2022/06/03 02:21:56;;;;;;;3.20;2.97;;;20.10;82.30;;;;;;4912194;29;20195;-74
2022/06/03 02:24:42;;;;;;;3.17;3.08;;;20.10;83.10;;;;;;4912083;29;20198;-73
2022/06/03 02:27:32;;;;;;;3.20;3.00;;;20.10;83.50;;;;;;4906639;29;20273;-73
2022/06/03 02:30:27;;;;;;;3.63;2.85;;;20.00;84.00;;;;;;4897344;29;20283;-73
2022/06/03 02:32:59;;;;;;;3.92;3.63;;;20.00;83.60;;;;;;4912920;29;20774;-72
2022/06/03 02:36:02;;;;;;;2.58;2.47;;;19.90;83.70;;;;;;4942451;28;20199;-73
2022/06/03 02:38:33;;;;;;;3.10;2.80;;;19.90;84.20;;;;;;5004009;28;20615;-74
2022/06/03 02:41:07;;;;;;;4.95;2.67;;;19.90;84.30;;;;;;5041676;28;20738;-72
2022/06/03 02:43:45;;;;;;;2.95;2.63;;;19.90;84.30;;;;;;5055965;28;20839;-73
2022/06/03 02:46:20;;;;;;;3.05;2.85;;;19.90;83.80;;;;;;5069068;28;20210;-73
2022/06/03 02:49:10;;;;;;;3.08;2.83;;;19.80;84.70;;;;;;5061142;28;20857;-72
2022/06/03 02:51:41;;;;;;;2.55;2.45;;;19.80;83.20;;;;;;5073558;28;20247;-72
2022/06/03 02:54:39;;;;;;;2.97;2.78;;;19.80;84.30;;;;;;5076906;28;20182;-72
2022/06/03 02:57:16;;;;;;;3.50;3.30;;;19.80;84.30;;;;;;5031580;28;20253;-73
2022/06/03 03:00:09;;;;;;;5.18;2.83;;;19.80;85.00;;;;;;5034225;28;20676;-72
2022/06/03 03:03:04;;;;;;;2.95;2.70;;;19.80;85.60;;;;;;5031961;28;20188;-73
2022/06/03 03:06:15;;;;;;;3.05;2.85;;;19.70;84.90;;;;;;5015396;28;21006;-72
2022/06/03 03:09:02;;;;;;;2.97;2.80;;;19.70;85.40;;;;;;5031638;28;20195;-72
2022/06/03 03:12:15;;;;;;;3.53;3.30;;;19.60;86.30;;;;;;5032886;28;20199;-72
2022/06/03 03:15:03;;;;;;;5.15;3.67;;;19.60;86.10;;;;;;5027430;28;20589;-74
2022/06/03 03:17:32;;;;;;;3.60;3.50;;;19.50;84.90;;;;;;5030099;28;20196;-73
2022/06/03 03:20:27;;;;;;;4.28;3.47;;;19.40;84.70;;;;;;5027899;28;20268;-73
2022/06/03 03:22:56;;;;;;;4.80;3.67;;;19.40;83.70;;;;;;5030252;28;20180;-73
2022/06/03 03:25:35;;;;;;;4.10;3.25;;;19.40;84.90;;;;;;5025367;28;20748;-73
2022/06/03 03:28:06;;;;;;;3.20;3.00;;;19.50;85.80;;;;;;5028123;28;20235;-73
2022/06/03 03:30:59;;;;;;;8.55;3.58;;;19.50;85.50;;;;;;5022277;28;20195;-73
2022/06/03 03:33:43;;;;;;;3.35;3.15;;;19.50;85.50;;;;;;5033711;28;20187;-73
2022/06/03 03:36:46;;;;;;;2.78;2.67;;;19.50;85.40;;;;;;5073592;28;21633;-73
2022/06/03 03:39:34;;;;;;;3.10;2.85;;;19.50;85.40;;;;;;5072826;28;20243;-73
2022/06/03 03:42:24;;;;;;;2.83;2.35;;;19.50;85.60;;;;;;5068908;28;20248;-73
2022/06/03 03:45:10;;;;;;;3.53;2.72;;;19.60;85.60;;;;;;5066785;28;20270;-73
2022/06/03 03:48:03;;;;;;;2.67;2.35;;;19.60;85.90;;;;;;5017217;28;20270;-74
2022/06/03 03:51:03;;;;;;;3.05;2.95;;;19.60;85.10;;;;;;5018219;28;20250;-73
2022/06/03 03:53:29;;;;;;;2.60;2.13;;;19.60;85.60;;;;;;5009788;28;20195;-73
2022/06/03 03:56:33;;;;;;;4.18;2.75;;;19.60;85.50;;;;;;5011311;28;20298;-73
2022/06/03 03:59:36;;;;;;;2.83;2.63;;;19.60;84.70;;;;;;5010638;28;20689;-72
2022/06/03 04:02:31;;;;;;;4.07;2.97;;;19.70;85.10;;;;;;5009173;28;20679;-72
2022/06/03 04:05:34;;;;;;;3.10;2.95;;;19.70;84.80;;;;;;5012116;28;20755;-72
2022/06/03 04:08:30;;;;;;;6.88;3.83;;;19.70;84.10;;;;;;5025843;28;20191;-73
2022/06/03 04:11:23;;;;;;;4.60;3.28;;;19.80;85.40;;;;;;5019945;28;20322;-73
2022/06/03 04:14:12;;;;;;;5.90;3.22;;;19.90;86.00;;;;;;4994116;28;20196;-72
2022/06/03 04:17:02;;;;;;;2.67;2.53;;;20.00;86.10;;;;;;4940258;28;20720;-73
2022/06/03 04:20:09;;;;;;;3.00;2.53;;;20.10;85.80;;;;;;4940886;28;20696;-73
2022/06/03 04:23:04;;;;;;;2.50;2.30;;;20.10;85.20;;;;;;4943187;28;20719;-73
2022/06/03 04:25:41;;;;;;;2.55;2.35;;;20.20;84.80;;;;;;4972734;28;20308;-73
2022/06/03 04:28:54;;;;;;;3.97;2.63;;;20.20;84.50;;;;;;4982146;28;20201;-74
2022/06/03 04:31:50;;;;;;;2.15;2.08;;;20.30;85.00;;;;;;4921843;29;20211;-73
2022/06/03 04:34:18;;;;;;;2.90;2.75;;;20.40;83.80;;;;;;4920546;29;20732;-74
2022/06/03 04:36:44;;;;;;;2.35;2.25;;;20.40;84.60;;;;;;4921605;29;20339;-74
2022/06/03 04:39:47;;;;;;;2.78;2.63;;;20.50;84.70;;;;;;4924134;29;20819;-73
2022/06/03 04:42:27;;;;;;;2.35;2.25;;;20.50;84.10;;;;;;4924236;29;20207;-75
2022/06/03 04:44:56;;;;;;;1.63;1.63;;;20.60;84.00;;;;;;4926765;29;20210;-76
2022/06/03 04:47:27;;;;;;;2.30;2.20;;;20.70;84.00;;;;;;4928317;29;20297;-76
2022/06/03 04:50:17;;;;;;;2.50;2.13;;;20.70;84.20;;;;;;4923374;29;20308;-76
2022/06/03 04:52:49;;;;;;;2.58;2.38;;;20.80;83.50;;;;;;4914372;28;20192;-75
2022/06/03 04:55:36;;;;;;;2.33;2.22;;;20.80;83.60;;;;;;4970766;28;20198;-75
2022/06/03 04:58:25;;;;;;;2.33;2.22;;;20.90;83.60;;;;;;4973245;28;20186;-76
2022/06/03 05:01:15;;;;;;;2.22;2.13;;;20.90;83.30;;;;;;4975413;28;20193;-77
2022/06/03 05:04:08;;;;;;;1.92;1.90;;;21.00;83.10;;;;;;5073827;28;20182;-77
2022/06/03 05:06:55;;;;;;;2.80;2.15;;;21.10;83.30;;;;;;5072883;28;20259;-76
2022/06/03 05:09:43;;;;;;;4.43;2.70;;;21.20;83.80;;;;;;5074252;28;20186;-75
2022/06/03 05:12:47;;;;;;;2.00;1.90;;;21.20;83.70;;;;;;5074733;28;20190;-76
2022/06/03 05:15:46;;;;;;;3.15;2.90;;;21.30;83.20;;;;;;5073811;28;20198;-77
2022/06/03 05:18:24;;;;;;;2.42;2.28;;;21.40;83.30;;;;;;5088713;28;20190;-73
2022/06/03 05:21:17;;;;;;;3.53;2.40;;;21.40;83.50;;;;;;5064868;28;20650;-76
2022/06/03 05:23:51;;;;;;;2.65;1.92;;;21.50;82.70;;;;;;5078033;28;20625;-76
2022/06/03 05:26:44;;;;;;;3.15;2.42;;;21.50;83.30;;;;;;5073187;28;20599;-76
2022/06/03 05:29:19;;;;;;;2.47;2.03;;;21.60;82.40;;;;;;5074630;28;20175;-73
2022/06/03 05:32:30;;;;;;;2.42;2.17;;;21.60;82.30;;;;;;5061748;28;20197;-76
2022/06/03 05:35:46;;;;;;;2.20;2.00;;;21.70;82.40;;;;;;5043249;28;20202;-76
2022/06/03 05:38:48;;;;;;;2.00;2.00;;;21.80;82.30;;;;;;4942448;29;20238;-74
2022/06/03 05:44:52;;;;;;;2.35;2.25;;;21.90;82.40;;;;;;4936024;29;20194;-77
2022/06/03 05:48:03;;;;;;;3.10;2.00;;;22.00;83.20;;;;;;4940348;29;20232;-74
2022/06/03 05:51:00;;;;;;;3.13;2.15;;;22.00;82.60;;;;;;4901371;29;20198;-74
2022/06/03 05:53:47;;;;;;;4.05;2.25;;;22.10;82.30;;;;;;4895596;29;20284;-73
2022/06/03 05:56:24;;;;;;;3.92;2.58;;;22.20;82.60;;;;;;4896769;29;20723;-74
2022/06/03 05:59:22;;;;;;;2.92;2.72;;;22.20;82.00;;;;;;4896686;29;20192;-74
2022/06/03 06:02:05;;;;;;;7.13;2.90;;;22.30;82.40;;;;;;4825715;29;20285;-74
2022/06/03 06:04:33;;;;;;;2.97;2.45;;;22.40;82.00;;;;;;4830460;29;20226;-73
2022/06/03 06:07:20;;;;;;;2.30;2.17;;;22.50;82.10;;;;;;4825514;29;20314;-73
2022/06/03 06:10:14;;;;;;;2.17;2.17;;;22.50;81.80;;;;;;4824699;29;20213;-73
2022/06/03 06:12:40;;;;;;;3.25;3.05;;;22.60;81.90;;;;;;4840939;29;20270;-73
2022/06/03 06:15:20;;;;;;;8.80;3.28;;;22.60;82.00;;;;;;4923492;29;20219;-73
2022/06/03 06:18:07;;;;;;;3.28;2.95;;;22.70;83.10;;;;;;4922386;29;20278;-73
2022/06/03 06:20:50;;;;;;;3.20;2.88;;;22.70;81.40;;;;;;4930409;28;20198;-74
2022/06/03 06:23:20;;;;;;;3.20;2.90;;;22.80;81.60;;;;;;4961522;28;20639;-74
2022/06/03 06:26:16;;;;;;;3.20;2.92;;;22.90;81.20;;;;;;4962084;28;20226;-74
2022/06/03 06:29:14;;;;;;;2.70;2.50;;;22.90;81.40;;;;;;4961518;28;20276;-74
2022/06/03 06:32:11;;;;;;;2.28;2.17;;;22.90;81.60;;;;;;4942519;29;20199;-74
2022/06/03 06:34:57;;;;;;;4.75;2.53;;;23.00;80.70;;;;;;4942285;29;20191;-74
2022/06/03 06:37:57;;;;;;;2.63;2.25;;;23.10;81.90;;;;;;4942215;29;20198;-74
2022/06/03 06:40:26;;;;;;;3.08;2.25;;;23.10;80.50;;;;;;4885368;29;20690;-74
2022/06/03 06:43:09;;;;;;;2.50;2.38;;;23.20;81.10;;;;;;4885552;29;20283;-74
2022/06/03 06:45:41;;;;;;;2.50;2.40;;;23.30;80.80;;;;;;4885317;29;20251;-73
2022/06/03 06:48:06;;;;;;;2.72;2.63;;;23.30;81.10;;;;;;4885343;29;20249;-73
2022/06/03 06:50:44;;;;;;;2.65;2.50;;;23.40;80.50;;;;;;4885436;29;20192;-73
2022/06/03 06:53:24;;;;;;;3.63;2.60;;;23.40;80.00;;;;;;4885410;29;20199;-73
2022/06/03 06:56:15;;;;;;;2.92;2.72;;;23.40;81.50;;;;;;4884718;29;20671;-73
2022/06/03 06:58:50;;;;;;;2.92;2.17;;;23.50;80.60;;;;;;4885560;29;20276;-73
2022/06/03 07:01:33;;;;;;;2.75;2.60;;;23.60;80.00;;;;;;4884134;29;20236;-73
2022/06/03 07:04:08;;;;;;;2.92;2.22;;;23.70;78.90;;;;;;4885115;29;20224;-75
2022/06/03 07:07:00;;;;;;;2.28;2.28;;;23.80;79.30;;;;;;4908301;28;20596;-74
2022/06/03 07:09:29;;;;;;;3.10;2.88;;;23.90;79.10;;;;;;4956017;28;20213;-74
2022/06/03 07:12:14;;;;;;;2.95;2.72;;;24.00;79.80;;;;;;4956745;28;20198;-73
2022/06/03 07:14:56;;;;;;;4.20;2.50;;;24.10;78.90;;;;;;4959296;28;20198;-73
2022/06/03 07:20:34;;;;;;;2.67;2.53;;;24.20;77.90;;;;;;5078036;28;20196;-75
2022/06/03 07:23:06;;;;;;;2.78;2.60;;;24.30;78.20;;;;;;5075678;28;20190;-75
2022/06/03 07:25:59;;;;;;;3.08;2.88;;;24.30;77.30;;;;;;5063847;28;20234;-74
2022/06/03 07:28:51;;;;;;;2.33;2.08;;;24.40;78.20;;;;;;5080469;28;20182;-75
2022/06/03 07:31:22;;;;;;;6.82;2.75;;;24.50;77.80;;;;;;5080669;28;20269;-74
2022/06/03 07:34:29;;;;;;;3.42;3.22;;;24.60;77.50;;;;;;5077152;28;20182;-74
2022/06/03 07:37:07;;;;;;;2.40;2.30;;;24.60;77.20;;;;;;5033382;28;20551;-73
2022/06/03 07:39:48;;;;;;;2.60;2.45;;;24.70;77.60;;;;;;5037284;28;20207;-74
2022/06/03 07:42:38;;;;;;;8.27;2.88;;;24.80;76.80;;;;;;5032274;28;20199;-72
2022/06/03 07:45:35;;;;;;;2.72;2.53;;;24.90;76.60;;;;;;5051183;28;20187;-75
2022/06/03 07:48:04;;;;;;;4.00;1.95;;;25.00;77.00;;;;;;5034956;28;20192;-75
2022/06/03 07:50:33;;;;;;;3.28;3.08;;;25.10;77.00;;;;;;5038652;28;20184;-74
2022/06/03 07:53:05;;;;;;;2.90;2.60;;;25.20;76.70;;;;;;5035767;28;20190;-75
2022/06/03 07:55:32;;;;;;;2.85;2.75;;;25.20;76.30;;;;;;5047046;28;20570;-74
2022/06/03 07:58:07;;;;;;;6.40;2.92;;;25.30;76.20;;;;;;5033700;28;20192;-74
2022/06/03 08:00:36;;;;;;;2.63;2.40;;;25.50;75.40;;;;;;5038361;28;20195;-75
2022/06/03 08:03:04;;;;;;;2.38;2.28;;;25.60;75.80;;;;;;5038280;28;20179;-75
2022/06/03 08:05:31;;;;;;;2.38;2.38;;;25.70;75.40;;;;;;5034971;28;20242;-75
2022/06/03 08:10:58;;;;;;;2.58;2.47;;;26.00;75.20;;;;;;5048265;28;20228;-75
2022/06/03 08:13:42;;;;;;;3.00;2.80;;;26.20;74.50;;;;;;5074392;28;20185;-75
2022/06/03 08:16:36;;;;;;;3.10;2.80;;;26.40;74.60;;;;;;5071493;28;20202;-79
2022/06/03 08:19:18;;;;;;;2.67;2.58;;;26.70;74.60;;;;;;5069828;28;20178;-75
2022/06/03 08:21:52;;;;;;;2.35;2.35;;;26.90;73.90;;;;;;5063740;28;20202;-76
2022/06/03 08:24:22;;;;;;;4.93;2.88;;;27.20;73.10;;;;;;5069911;28;20271;-77
2022/06/03 08:27:02;;;;;;;2.92;2.75;;;27.30;71.60;;;;;;5066004;28;20766;-76
2022/06/03 08:29:40;;;;;;;2.15;2.15;;;27.40;72.50;;;;;;5067405;28;20196;-75
2022/06/03 08:32:33;;;;;;;2.72;2.63;;;27.50;72.50;;;;;;5087632;28;20295;-76
2022/06/03 08:35:00;;;;;;;2.15;2.05;;;27.70;71.50;;;;;;5011481;28;20188;-75
2022/06/03 08:37:29;;;;;;;4.90;2.90;;;27.80;72.10;;;;;;5006007;28;20220;-76
2022/06/03 08:39:58;;;;;;;2.92;2.83;;;28.00;71.80;;;;;;5009204;28;20192;-75
2022/06/03 08:42:31;;;;;;;2.58;2.47;;;28.10;70.80;;;;;;4986878;28;20191;-75
2022/06/03 08:45:16;;;;;;;3.90;2.30;;;28.30;70.90;;;;;;5012296;28;20199;-77
2022/06/03 08:47:53;;;;;;;3.97;2.90;;;28.40;70.30;;;;;;4997105;28;20223;-78
2022/06/03 08:50:39;;;;;;;3.20;2.92;;;28.60;69.80;;;;;;4999456;28;20192;-76
2022/06/03 08:53:15;;;;;;;3.97;2.88;;;28.60;69.90;;;;;;4997174;28;20590;-74
2022/06/03 08:56:09;;;;;;;3.40;2.97;;;28.70;69.90;;;;;;5004054;28;20215;-73
2022/06/03 08:58:50;;;;;;;3.28;3.00;;;28.80;69.60;;;;;;5006319;28;20247;-75
2022/06/03 09:01:15;;;;;;;7.38;2.88;;;28.90;69.60;;;;;;5005449;28;20220;-79
2022/06/03 09:04:14;;;;;;;2.97;2.72;;;29.00;68.80;;;;;;4990809;28;20269;-76
2022/06/03 09:07:00;;;;;;;8.65;2.58;;;29.10;69.10;;;;;;4999568;28;20229;-79
2022/06/03 09:09:31;;;;;;;2.72;2.53;;;29.20;67.00;;;;;;5012184;28;20354;-78
2022/06/03 09:12:12;;;;;;;2.85;2.65;;;29.20;68.10;;;;;;5029279;28;20194;-78
2022/06/03 09:14:42;;;;;;;2.67;2.55;;;29.30;67.60;;;;;;5075271;28;20190;-78
2022/06/03 09:17:37;;;;;;;5.18;2.65;;;29.40;66.90;;;;;;5073782;28;20183;-78
2022/06/03 09:20:11;;;;;;;3.30;2.42;;;29.50;67.70;;;;;;5069700;28;20189;-78
2022/06/03 09:22:37;;;;;;;2.60;2.40;;;29.60;67.00;;;;;;5074073;28;20239;-78
2022/06/03 09:25:05;;;;;;;3.08;2.55;;;29.70;67.50;;;;;;5063949;28;20575;-80
2022/06/03 09:27:34;;;;;;;3.08;2.80;;;29.80;67.10;;;;;;5068649;28;20186;-79
2022/06/03 09:30:03;;;;;;;4.88;2.75;;;29.90;67.10;;;;;;5075140;28;20443;-79
2022/06/03 09:32:38;;;;;;;3.58;3.28;;;30.10;67.00;;;;;;5060211;28;20676;-77
2022/06/03 09:35:13;;;;;;;10.73;3.03;;;30.10;66.60;;;;;;5070094;28;20178;-76
2022/06/03 09:37:43;;;;;;;3.47;3.22;;;30.30;66.50;;;;;;5062852;28;20214;-76
2022/06/03 09:40:18;;;;;;;3.53;3.33;;;30.30;66.10;;;;;;5065481;28;20652;-76
2022/06/03 09:42:54;;;;;;;3.58;3.28;;;30.30;66.00;;;;;;5074504;28;20237;-76
2022/06/03 09:45:20;;;;;;;2.65;2.53;;;30.40;65.90;;;;;;5075232;28;20683;-76
2022/06/03 09:47:48;;;;;;;3.17;2.80;;;30.40;65.40;;;;;;5075986;28;20200;-76
2022/06/03 09:50:18;;;;;;;2.40;2.30;;;30.40;63.80;;;;;;5077200;28;20174;-76
2022/06/03 09:52:48;;;;;;;3.50;2.65;;;30.30;63.90;;;;;;5071133;28;20194;-75
2022/06/03 09:55:36;;;;;;;2.50;2.30;;;30.10;63.90;;;;;;5072515;28;20174;-75
2022/06/03 09:58:04;;;;;;;2.13;2.08;;;30.00;63.50;;;;;;5062640;28;20174;-75
2022/06/03 10:00:54;;;;;;;2.53;2.25;;;30.00;63.90;;;;;;5058287;28;20651;-75
2022/06/03 10:03:21;;;;;;;2.13;1.90;;;29.90;64.10;;;;;;5066308;28;20461;-76
2022/06/03 10:05:56;;;;;;;2.17;2.15;;;29.90;63.30;;;;;;5067303;28;20203;-75
2022/06/03 10:08:28;;;;;;;2.72;2.72;;;29.80;62.60;;;;;;5069923;28;20345;-74
2022/06/03 10:13:39;;;;;;;2.95;2.85;;;29.80;64.60;;;;;;5073647;28;20266;-77
2022/06/03 10:16:07;;;;;;;3.17;2.92;;;29.70;64.20;;;;;;5066622;28;20193;-78
2022/06/03 10:18:37;;;;;;;2.65;2.55;;;29.70;64.70;;;;;;5057260;28;20202;-79
2022/06/03 10:21:06;;;;;;;4.47;2.90;;;29.80;64.70;;;;;;5066264;28;20194;-79
2022/06/03 10:23:40;;;;;;;2.58;2.58;;;29.80;64.30;;;;;;5093096;28;20190;-79
2022/06/03 10:26:06;;;;;;;2.92;2.83;;;29.80;64.50;;;;;;5069663;28;20210;-79
2022/06/03 10:28:41;;;;;;;2.60;2.50;;;29.90;64.40;;;;;;5071661;28;20179;-79
2022/06/03 10:31:13;;;;;;;3.17;2.80;;;30.00;65.00;;;;;;5069458;28;20185;-79
2022/06/03 10:33:39;;;;;;;3.10;3.00;;;30.00;64.70;;;;;;5067783;28;20366;-78
2022/06/03 10:36:06;;;;;;;2.55;2.45;;;30.10;64.20;;;;;;5067015;28;20601;-77
2022/06/03 10:38:36;;;;;;;3.97;2.97;;;30.10;64.00;;;;;;5071082;28;20187;-78
2022/06/03 10:41:13;;;;;;;4.10;3.05;;;30.10;64.10;;;;;;5070477;28;20208;-77
2022/06/03 10:43:41;;;;;;;3.03;2.92;;;30.30;64.10;;;;;;5059514;28;20179;-78
2022/06/03 10:46:13;;;;;;;3.42;3.33;;;30.20;64.30;;;;;;5070349;28;20203;-77
2022/06/03 10:48:39;;;;;;;3.00;3.00;;;30.40;64.20;;;;;;5072488;28;20202;-77
2022/06/03 11:02:47;;;;;;;2.97;2.78;;;32.90;59.60;;;;;;4957246;28;20189;-78
2022/06/03 11:05:27;;;;;;;2.90;2.80;;;33.70;58.60;;;;;;4957931;28;20199;-78
2022/06/03 11:08:00;;;;;;;6.57;3.38;;;34.40;56.30;;;;;;4957084;28;20193;-78
2022/06/03 11:10:29;;;;;;;4.28;2.88;;;34.80;56.90;;;;;;4958749;28;20236;-77
2022/06/03 11:12:59;;;;;;;2.53;2.42;;;35.30;56.20;;;;;;4960045;28;20284;-77
2022/06/03 11:15:46;;;;;;;2.30;2.08;;;35.80;56.00;;;;;;4957915;28;20232;-77
2022/06/03 11:18:19;;;;;;;2.47;2.35;;;36.30;53.70;;;;;;4955872;28;20194;-77
2022/06/03 11:20:48;;;;;;;2.97;2.80;;;36.80;54.20;;;;;;4953902;28;20192;-77
2022/06/03 11:23:15;;;;;;;2.47;2.28;;;37.00;51.10;;;;;;4949217;28;20623;-77
2022/06/03 11:25:46;;;;;;;2.78;2.47;;;37.30;51.60;;;;;;4956472;28;20229;-78
2022/06/03 11:28:37;;;;;;;3.40;2.30;;;37.60;51.10;;;;;;4958059;28;20271;-78
2022/06/03 11:31:30;;;;;;;2.53;2.33;;;38.00;51.00;;;;;;4972528;28;20196;-77
2022/06/03 11:34:19;;;;;;;3.00;2.67;;;38.20;49.70;;;;;;4907983;29;20207;-76
2022/06/03 11:36:48;;;;;;;2.38;2.38;;;38.50;51.70;;;;;;4922576;28;20237;-76
2022/06/03 11:39:49;;;;;;;2.80;2.60;;;38.70;51.20;;;;;;4950507;28;20572;-76
2022/06/03 11:42:42;;;;;;;3.10;2.55;;;38.80;50.10;;;;;;4945673;28;20190;-77
2022/06/03 11:45:13;;;;;;;6.68;2.47;;;38.90;50.40;;;;;;4949280;28;20194;-78
2022/06/03 11:48:16;;;;;;;2.63;2.42;;;38.80;49.80;;;;;;4947260;28;20208;-78
2022/06/03 11:50:42;;;;;;;2.22;2.05;;;38.90;48.90;;;;;;4899024;29;20310;-77
2022/06/03 11:53:08;;;;;;;2.42;2.30;;;39.10;48.60;;;;;;4894117;29;20192;-77
2022/06/03 11:55:34;;;;;;;2.30;2.30;;;39.40;49.00;;;;;;4894907;29;20188;-77
2022/06/03 11:58:02;;;;;;;3.90;2.50;;;39.50;48.70;;;;;;4901560;29;20231;-79
2022/06/03 12:00:37;;;;;;;3.22;2.97;;;39.50;48.30;;;;;;4916273;29;20796;-79
2022/06/03 12:03:31;;;;;;;4.90;2.50;;;39.20;48.50;;;;;;4917477;29;20207;-79
2022/06/03 12:06:14;;;;;;;2.30;2.20;;;38.70;47.60;;;;;;4911938;29;20702;-79
2022/06/03 12:08:48;;;;;;;2.33;2.22;;;38.50;49.20;;;;;;4902002;29;20915;-79
2022/06/03 12:14:31;;;;;;;2.55;2.33;;;38.60;48.60;;;;;;4999807;28;20586;-79
2022/06/03 12:17:04;;;;;;;2.53;2.42;;;39.00;49.10;;;;;;4998720;28;20193;-79
2022/06/03 12:19:48;;;;;;;1.90;1.90;;;39.50;47.00;;;;;;4987459;28;20259;-79
2022/06/03 12:22:17;;;;;;;2.22;2.03;;;39.60;47.40;;;;;;5002037;28;20189;-79
2022/06/03 12:24:46;;;;;;;2.22;2.08;;;39.50;47.70;;;;;;5007350;28;20181;-79
2022/06/03 12:27:20;;;;;;;2.00;1.90;;;39.40;46.50;;;;;;5072375;28;20226;-79
2022/06/03 12:30:11;;;;;;;2.55;2.40;;;39.00;46.70;;;;;;5082526;28;20220;-79
2022/06/03 12:32:39;;;;;;;3.80;2.58;;;38.80;47.20;;;;;;5067745;28;20244;-79
2022/06/03 12:35:42;;;;;;;2.00;2.00;;;38.20;46.90;;;;;;5080426;28;20179;-79
2022/06/03 12:38:21;;;;;;;2.40;2.40;;;37.70;47.10;;;;;;5078914;28;20180;-79
2022/06/03 12:40:49;;;;;;;4.00;2.28;;;37.30;50.30;;;;;;5076911;28;20711;-79
2022/06/03 12:43:31;;;;;;;2.28;2.20;;;36.80;49.80;;;;;;5081566;28;20582;-79
2022/06/03 12:46:03;;;;;;;5.78;2.50;;;36.30;49.30;;;;;;5076201;28;20214;-79
2022/06/03 12:48:43;;;;;;;2.50;2.15;;;35.80;50.40;;;;;;5077382;28;20195;-79
2022/06/03 12:51:25;;;;;;;2.28;2.17;;;35.60;49.80;;;;;;5073567;28;20190;-79
2022/06/03 12:54:16;;;;;;;3.67;2.30;;;35.30;50.50;;;;;;5076557;28;20604;-80
2022/06/03 12:56:55;;;;;;;2.45;2.35;;;35.10;50.30;;;;;;5037355;28;20203;-78
2022/06/03 12:59:29;;;;;;;2.38;2.15;;;34.80;51.90;;;;;;5039282;28;20199;-79
2022/06/03 13:02:29;;;;;;;2.75;2.55;;;34.70;52.20;;;;;;5044602;28;20241;-79
2022/06/03 13:04:55;;;;;;;2.45;2.22;;;34.30;53.80;;;;;;4990057;28;20201;-79
2022/06/03 13:07:26;;;;;;;2.95;2.47;;;34.00;53.00;;;;;;4989211;28;20229;-78
2022/06/03 13:10:03;;;;;;;2.95;2.78;;;33.90;53.10;;;;;;4983383;28;20612;-78
2022/06/03 13:12:48;;;;;;;3.17;2.95;;;33.70;53.40;;;;;;4987975;28;20197;-78
2022/06/03 13:15:16;;;;;;;15.00;2.83;;;33.60;54.20;;;;;;4986818;28;20295;-78
2022/06/03 13:18:09;;;;;;;2.55;2.45;;;33.60;54.80;;;;;;4986752;28;20193;-78
2022/06/03 13:20:35;;;;;;;2.78;2.47;;;33.40;54.60;;;;;;4985545;28;20261;-79
2022/06/03 13:23:01;;;;;;;2.63;2.50;;;33.30;55.10;;;;;;4987911;28;20269;-78
2022/06/03 13:25:32;;;;;;;2.83;2.63;;;33.20;55.10;;;;;;4988303;28;20761;-78
2022/06/03 13:28:40;;;;;;;2.28;2.17;;;33.10;55.30;;;;;;4986565;28;20193;-78
2022/06/03 13:31:19;;;;;;;3.38;2.70;;;33.00;55.30;;;;;;4937797;28;20187;-78
2022/06/03 13:34:05;;;;;;;2.95;2.85;;;32.90;56.00;;;;;;4948646;28;20194;-78
2022/06/03 13:36:31;;;;;;;2.97;2.88;;;32.80;56.60;;;;;;4905345;29;20200;-78
2022/06/03 13:38:57;;;;;;;2.80;2.80;;;32.80;57.00;;;;;;4905270;29;20199;-78
2022/06/03 13:44:46;;;;;;;4.28;2.85;;;32.80;56.80;;;;;;4905037;29;20284;-78
2022/06/03 13:47:20;;;;;;;3.17;3.08;;;32.80;56.50;;;;;;4904550;29;20638;-79
2022/06/03 13:50:06;;;;;;;3.70;3.53;;;32.80;56.60;;;;;;4898002;29;20290;-78
2022/06/03 13:52:37;;;;;;;3.58;3.03;;;32.80;57.60;;;;;;4905324;29;20184;-79
2022/06/03 13:55:06;;;;;;;8.38;3.50;;;32.80;57.90;;;;;;4897480;29;20208;-79
2022/06/03 13:57:38;;;;;;;3.35;3.20;;;32.80;58.20;;;;;;4894298;29;20796;-76
2022/06/03 14:00:27;;;;;;;3.53;3.03;;;32.70;58.30;;;;;;4903560;29;20200;-77
2022/06/03 14:03:04;;;;;;;3.80;3.50;;;32.50;58.50;;;;;;4903035;29;20644;-77
2022/06/03 14:05:38;;;;;;;3.97;3.63;;;32.40;58.60;;;;;;4904349;29;20323;-76
2022/06/03 14:08:15;;;;;;;4.15;3.75;;;32.30;59.00;;;;;;4918770;29;20199;-76
2022/06/03 14:10:56;;;;;;;4.13;3.83;;;32.10;59.30;;;;;;4905874;29;20586;-77
2022/06/03 14:13:42;;;;;;;3.90;3.70;;;32.00;59.80;;;;;;4951702;28;20200;-76
2022/06/03 14:16:15;;;;;;;4.13;3.88;;;31.90;60.60;;;;;;4998711;28;20316;-77
2022/06/03 14:19:02;;;;;;;4.82;3.65;;;31.70;61.00;;;;;;4999625;28;20189;-77
2022/06/03 14:21:38;;;;;;;4.07;3.78;;;31.70;60.70;;;;;;5032765;28;21306;-77
2022/06/03 14:24:10;;;;;;;3.45;3.25;;;31.60;61.20;;;;;;5072943;28;20190;-76
2022/06/03 14:27:20;;;;;;;4.22;3.80;;;31.50;61.50;;;;;;5070031;28;20698;-77
2022/06/03 14:29:56;;;;;;;3.80;3.67;;;31.40;61.00;;;;;;5074382;28;20198;-77
2022/06/03 14:32:24;;;;;;;3.75;3.53;;;31.30;60.60;;;;;;5077213;28;20626;-76
2022/06/03 14:34:57;;;;;;;3.78;3.60;;;31.10;60.80;;;;;;5081796;28;20673;-76